Time;durP1;ratioP1;P1;durP2;ratioP2;P2;SDS_P1;SDS_P2;PMS_P1;PMS_P2;Temp;Humidity;BMP_temperature;BMP_pressure;BME280_temperature;BME280_humidity;BME280_pressure;Samples;Min_cycle;Max_cycle;Signal;HPM_P1;HPM_P2
2023/07/17 00:00:30;;;;;;;;;19.00;17.75;;;;;26.66;53.92;101166.91;2106144;28;46568;-56
2023/07/17 00:01:30;;;;;;;;;12.75;11.50;;;;;26.64;53.67;101163.44;2105879;28;46508;-57
2023/07/17 00:02:30;;;;;;;;;8.50;8.50;;;;;26.64;54.44;101165.31;2105744;28;46462;-57
2023/07/17 00:03:31;;;;;;;;;5.25;4.75;;;;;26.62;53.74;101160.00;2105907;28;45590;-57
2023/07/17 00:04:31;;;;;;;;;4.00;4.00;;;;;26.64;54.22;101168.03;2101008;28;46535;-59
2023/07/17 00:05:31;;;;;;;;;4.00;4.00;;;;;26.64;53.96;101174.34;2105908;27;45450;-55
2023/07/17 00:06:32;;;;;;;;;5.00;4.00;;;;;26.64;54.25;101170.75;2105927;28;46623;-58
2023/07/17 00:07:32;;;;;;;;;6.00;5.00;;;;;26.63;53.60;101167.16;2105799;28;46423;-58
2023/07/17 00:08:32;;;;;;;;;3.33;3.33;;;;;26.62;54.25;101176.31;2105785;28;46838;-56
2023/07/17 00:09:33;;;;;;;;;4.00;3.67;;;;;26.62;54.19;101167.28;2105924;28;46654;-57
2023/07/17 00:10:33;;;;;;;;;7.25;6.25;;;;;26.58;54.22;101166.69;2105572;28;46380;-57
2023/07/17 00:11:34;;;;;;;;;6.25;5.25;;;;;26.58;54.28;101161.25;2105008;28;46284;-56
2023/07/17 00:12:34;;;;;;;;;4.00;4.00;;;;;26.60;53.80;101172.88;2106282;28;45630;-57
2023/07/17 00:13:35;;;;;;;;;2.67;2.33;;;;;26.63;54.23;101171.75;2105069;28;46332;-57
2023/07/17 00:14:35;;;;;;;;;2.00;2.00;;;;;26.61;54.21;101163.69;2105344;28;46278;-57
2023/07/17 00:15:35;;;;;;;;;1.00;1.00;;;;;26.62;53.96;101170.88;2105874;28;46542;-56
2023/07/17 00:16:36;;;;;;;;;4.00;2.33;;;;;26.47;53.85;101171.28;2106116;28;46196;-58
2023/07/17 00:17:36;;;;;;;;;0.67;0.67;;;;;26.60;53.81;101166.56;2105806;28;46216;-58
2023/07/17 00:18:37;;;;;;;;;1.00;1.00;;;;;26.58;53.38;101166.69;2105842;28;45945;-58
2023/07/17 00:19:38;;;;;;;;;2.67;2.00;;;;;26.45;53.63;101165.09;2105684;28;46512;-57
2023/07/17 00:20:38;;;;;;;;;0.00;0.00;;;;;26.39;53.93;101170.03;2105807;28;46378;-56
2023/07/17 00:21:38;;;;;;;;;1.00;1.00;;;;;26.37;53.74;101171.13;2096948;28;46112;-58
2023/07/17 00:22:39;;;;;;;;;1.00;0.33;;;;;26.36;54.57;101166.69;2096633;28;46921;-54
2023/07/17 00:23:40;;;;;;;;;1.00;1.00;;;;;26.35;54.37;101170.38;2096889;28;46655;-56
2023/07/17 00:24:40;;;;;;;;;2.00;2.00;;;;;26.34;54.25;101165.91;2096729;28;46185;-58
2023/07/17 00:25:40;;;;;;;;;3.00;2.67;;;;;26.32;54.50;101171.50;2105768;28;46853;-55
2023/07/17 00:26:41;;;;;;;;;1.00;1.00;;;;;26.30;54.18;101168.03;2105822;28;46677;-56
2023/07/17 00:27:41;;;;;;;;;1.67;1.00;;;;;26.29;54.06;101168.13;2096565;28;46470;-57
2023/07/17 00:28:41;;;;;;;;;1.67;1.00;;;;;26.29;54.58;101159.97;2096904;28;45717;-58
2023/07/17 00:29:43;;;;;;;;;3.67;2.00;;;;;26.29;54.01;101160.81;2105881;28;46813;-58
2023/07/17 00:30:44;;;;;;;;;2.00;2.00;;;;;26.29;54.53;101159.97;2105891;28;46583;-57
2023/07/17 00:31:44;;;;;;;;;0.67;0.67;;;;;26.26;54.11;101173.81;2105641;28;46906;-57
2023/07/17 00:32:44;;;;;;;;;1.00;1.00;;;;;26.22;54.58;101165.03;2105699;28;46674;-57
2023/07/17 00:33:45;;;;;;;;;0.33;0.33;;;;;26.21;54.55;101166.03;2105779;28;46994;-58
2023/07/17 00:34:45;;;;;;;;;1.00;1.00;;;;;26.21;54.31;101162.47;2105522;28;46460;-57
2023/07/17 00:35:45;;;;;;;;;0.67;0.67;;;;;26.19;54.60;101162.59;2105660;28;46356;-58
2023/07/17 00:36:46;;;;;;;;;0.00;0.00;;;;;26.17;54.69;101164.56;2096980;28;46784;-57
2023/07/17 00:37:47;;;;;;;;;1.00;0.67;;;;;26.18;54.30;101160.00;2096544;28;46278;-58
2023/07/17 00:38:47;;;;;;;;;1.00;1.00;;;;;26.16;54.53;101160.09;2100341;28;45575;-59
2023/07/17 00:39:49;;;;;;;;;1.00;1.00;;;;;26.15;54.71;101169.22;2096918;28;47017;-58
2023/07/17 00:40:50;;;;;;;;;1.25;1.25;;;;;26.15;54.12;101162.94;2096779;28;47064;-60
2023/07/17 00:41:51;;;;;;;;;1.00;1.00;;;;;26.15;54.33;101173.81;2105797;28;46583;-57
2023/07/17 00:42:57;;;;;;;;;0.50;0.50;;;;;26.15;54.05;101177.41;2105705;28;46241;-55
2023/07/17 00:43:57;;;;;;;;;1.75;1.75;;;;;26.13;53.79;101170.34;2105361;28;46967;-56
2023/07/17 00:44:58;;;;;;;;;3.33;3.33;;;;;26.11;54.01;101173.19;2105864;28;46203;-59
2023/07/17 00:45:58;;;;;;;;;1.67;1.67;;;;;26.10;54.56;101171.47;2105604;28;46796;-56
2023/07/17 00:46:59;;;;;;;;;1.00;1.00;;;;;26.10;54.50;101177.78;2105492;28;46237;-56
2023/07/17 00:48:00;;;;;;;;;3.00;1.33;;;;;26.11;54.76;101178.63;2105741;28;46415;-57
2023/07/17 00:49:02;;;;;;;;;2.50;2.00;;;;;26.14;53.92;101180.25;2105066;28;46369;-57
2023/07/17 00:50:04;;;;;;;;;1.00;1.00;;;;;26.13;54.68;101173.94;2105562;28;46772;-57
2023/07/17 00:51:04;;;;;;;;;1.00;1.00;;;;;26.11;54.31;101174.06;2105818;28;46899;-57
2023/07/17 00:52:05;;;;;;;;;2.00;2.00;;;;;26.11;54.04;101176.78;2105600;28;46185;-58
2023/07/17 00:53:08;;;;;;;;;1.67;1.00;;;;;26.10;54.55;101175.06;2105526;28;46085;-58
2023/07/17 00:54:10;;;;;;;;;3.25;2.00;;;;;26.10;54.39;101171.47;2096485;28;46638;-57
2023/07/17 00:55:12;;;;;;;;;2.75;2.00;;;;;26.09;54.64;101178.75;2080225;28;46600;-57
2023/07/17 00:56:13;;;;;;;;;1.00;1.00;;;;;26.08;54.65;101173.44;2088916;28;46758;-58
2023/07/17 00:57:15;;;;;;;;;0.33;0.33;;;;;26.08;54.16;101173.44;2105519;28;46682;-58
2023/07/17 00:58:16;;;;;;;;;1.75;1.00;;;;;26.06;54.11;101179.03;2105495;28;46520;-56
2023/07/17 00:59:17;;;;;;;;;2.00;1.00;;;;;26.06;54.16;101180.88;2105684;28;45779;-55
2023/07/17 01:00:18;;;;;;;;;1.00;1.00;;;;;26.07;54.13;101179.88;2105630;28;46400;-57
2023/07/17 01:01:19;;;;;;;;;3.00;3.00;;;;;26.05;53.95;101185.44;2105270;28;47003;-57
2023/07/17 01:02:21;;;;;;;;;1.33;1.33;;;;;26.06;54.39;101183.59;2105821;28;46436;-56
2023/07/17 01:03:22;;;;;;;;;1.80;1.20;;;;;26.06;53.89;101175.44;2105443;28;46973;-58
2023/07/17 01:04:22;;;;;;;;;1.00;1.00;;;;;26.06;53.89;101183.59;2096110;28;46522;-57
2023/07/17 01:05:23;;;;;;;;;2.00;2.00;;;;;26.05;54.09;101184.59;2096367;28;46312;-57
2023/07/17 01:06:27;;;;;;;;;0.75;0.75;;;;;26.05;53.87;101185.44;2102714;28;46143;-57
2023/07/17 01:07:27;;;;;;;;;2.00;2.00;;;;;26.18;53.66;101188.06;2105551;28;46608;-57
2023/07/17 01:08:27;;;;;;;;;0.00;0.00;;;;;26.04;53.83;101185.53;2105871;28;46569;-57
2023/07/17 01:09:28;;;;;;;;;2.00;1.00;;;;;26.03;53.91;101179.22;2105539;28;46266;-55
2023/07/17 01:10:29;;;;;;;;;2.75;2.00;;;;;26.05;54.19;101182.72;2105646;28;46431;-58
2023/07/17 01:11:29;;;;;;;;;2.50;1.75;;;;;26.03;54.12;101183.81;2105332;28;46231;-58
2023/07/17 01:12:32;;;;;;;;;1.00;1.00;;;;;26.02;54.11;101190.25;2105626;28;46823;-57
2023/07/17 01:13:43;;;;;;;;;2.00;2.00;;;;;26.03;54.37;101189.25;2105625;28;46565;-58
2023/07/17 01:14:43;;;;;;;;;2.60;1.40;;;;;26.02;54.75;101192.97;2105808;28;46521;-55
2023/07/17 01:15:44;;;;;;;;;2.00;2.00;;;;;26.00;54.14;101178.63;2105719;28;45554;-58
2023/07/17 01:16:48;;;;;;;;;1.00;1.00;;;;;26.01;54.21;101188.50;2104688;27;46992;-58
2023/07/17 01:17:49;;;;;;;;;2.00;2.00;;;;;26.00;54.05;101184.94;2104494;28;46654;-56
2023/07/17 01:18:49;;;;;;;;;2.50;2.50;;;;;25.98;54.22;101189.63;2105473;28;46964;-55
2023/07/17 01:19:50;;;;;;;;;4.25;2.25;;;;;25.98;54.37;101183.31;2105417;28;46273;-57
2023/07/17 01:20:50;;;;;;;;;2.00;2.00;;;;;25.97;54.16;101196.06;2105115;28;46794;-59
2023/07/17 01:21:59;;;;;;;;;1.25;1.25;;;;;25.98;54.16;101197.78;2105597;28;46065;-58
2023/07/17 01:23:03;;;;;;;;;2.00;2.00;;;;;25.95;54.85;101195.31;2105836;28;46664;-55
2023/07/17 01:24:03;;;;;;;;;2.00;2.00;;;;;25.95;55.06;101195.31;2105283;28;46393;-55
2023/07/17 01:25:04;;;;;;;;;1.75;1.75;;;;;25.96;54.80;101193.47;2087559;28;46754;-58
2023/07/17 01:26:18;;;;;;;;;1.25;1.25;;;;;25.97;54.52;101189.75;2088050;28;44960;-58
2023/07/17 01:27:19;;;;;;;;;1.60;1.60;;;;;25.96;55.07;101193.47;2105133;28;46687;-57
2023/07/17 01:28:19;;;;;;;;;2.00;2.00;;;;;25.95;55.29;101195.31;2105435;28;46488;-56
2023/07/17 01:29:20;;;;;;;;;4.00;3.00;;;;;25.98;54.80;101188.75;2096278;28;46243;-55
2023/07/17 01:30:20;;;;;;;;;2.67;2.67;;;;;25.99;54.75;101193.22;2095862;28;46836;-57
2023/07/17 01:31:20;;;;;;;;;3.00;3.00;;;;;25.99;54.83;101188.63;2097232;28;46965;-57
2023/07/17 01:32:21;;;;;;;;;2.75;2.75;;;;;25.97;54.57;101192.47;2102473;28;46630;-57
2023/07/17 01:33:21;;;;;;;;;1.25;1.25;;;;;25.98;55.15;101192.34;2096267;28;46420;-59
2023/07/17 01:34:21;;;;;;;;;3.00;2.25;;;;;25.99;55.16;101188.63;2096455;28;46404;-56
2023/07/17 01:35:22;;;;;;;;;2.00;2.00;;;;;25.99;54.79;101191.34;2104915;28;46478;-58
2023/07/17 01:36:22;;;;;;;;;1.00;1.00;;;;;26.00;54.49;101192.22;2105387;28;46539;-58
2023/07/17 01:37:22;;;;;;;;;2.00;2.00;;;;;25.99;54.23;101188.63;2105296;28;46370;-59
2023/07/17 01:38:23;;;;;;;;;3.50;2.00;;;;;25.98;54.73;101191.47;2105105;28;46423;-58
2023/07/17 01:39:24;;;;;;;;;2.25;2.25;;;;;25.97;54.86;101190.63;2105268;28;46363;-58
2023/07/17 01:40:24;;;;;;;;;1.50;1.50;;;;;25.97;54.81;101181.59;2087265;28;47003;-58
2023/07/17 01:41:25;;;;;;;;;2.00;2.00;;;;;25.97;54.62;101192.47;2087314;28;46556;-58
2023/07/17 01:42:25;;;;;;;;;1.50;1.50;;;;;25.98;54.91;101189.63;2104737;28;46728;-58
2023/07/17 01:43:26;;;;;;;;;2.00;2.00;;;;;25.98;54.73;101184.19;2105375;28;46079;-58
2023/07/17 01:44:28;;;;;;;;;2.75;2.75;;;;;25.99;54.90;101185.03;2096428;28;46271;-58
2023/07/17 01:45:28;;;;;;;;;1.40;1.00;;;;;25.98;54.99;101188.75;2096363;28;46662;-56
2023/07/17 01:46:28;;;;;;;;;1.75;1.75;;;;;25.99;54.36;101198.66;2096346;28;46097;-56
2023/07/17 01:47:29;;;;;;;;;2.00;2.00;;;;;25.96;54.25;101191.59;2096206;28;46406;-57
2023/07/17 01:48:29;;;;;;;;;2.50;2.50;;;;;26.03;54.94;101191.97;2104904;28;46495;-58
2023/07/17 01:49:29;;;;;;;;;1.25;1.25;;;;;26.14;54.54;101196.56;2105022;28;46586;-56
2023/07/17 01:50:30;;;;;;;;;1.25;1.25;;;;;26.15;54.05;101188.28;2105454;28;46507;-57
2023/07/17 01:51:30;;;;;;;;;2.33;2.33;;;;;25.98;54.60;101191.47;2104856;28;46342;-56
2023/07/17 01:52:30;;;;;;;;;1.67;1.67;;;;;25.97;55.05;101195.19;2105700;28;46350;-57
2023/07/17 01:53:31;;;;;;;;;1.00;1.00;;;;;25.95;54.68;101191.72;2104938;28;47131;-58
2023/07/17 01:54:31;;;;;;;;;1.00;1.00;;;;;25.96;55.28;101193.47;2105332;28;46788;-56
2023/07/17 01:55:31;;;;;;;;;1.33;1.33;;;;;25.94;54.81;101192.72;2105457;28;46321;-57
2023/07/17 01:56:32;;;;;;;;;2.00;2.00;;;;;26.08;55.04;101193.34;2105871;28;46011;-57
2023/07/17 01:57:32;;;;;;;;;4.00;2.33;;;;;25.95;54.67;101194.44;2105374;28;46352;-57
2023/07/17 01:58:33;;;;;;;;;2.33;2.33;;;;;25.91;54.91;101190.22;2105271;28;46464;-58
2023/07/17 01:59:33;;;;;;;;;0.33;0.33;;;;;25.89;54.89;101190.34;2104920;28;46198;-56
2023/07/17 02:00:35;;;;;;;;;0.67;0.67;;;;;25.89;55.28;101195.78;2104700;28;46243;-58
2023/07/17 02:01:35;;;;;;;;;2.00;2.00;;;;;25.88;54.97;101196.75;2104499;28;46361;-57
2023/07/17 02:02:35;;;;;;;;;0.33;0.33;;;;;25.86;55.12;101198.75;2104872;28;46743;-58
2023/07/17 02:03:36;;;;;;;;;1.00;1.00;;;;;25.88;55.48;101198.63;2105314;28;46607;-58
2023/07/17 02:04:36;;;;;;;;;1.00;1.00;;;;;25.89;55.29;101194.91;2104664;28;46328;-58
2023/07/17 02:05:36;;;;;;;;;3.00;1.00;;;;;25.87;54.85;101197.75;2105294;28;46712;-58
2023/07/17 02:06:36;;;;;;;;;1.00;1.00;;;;;25.87;55.28;101192.31;2105279;28;46236;-55
2023/07/17 02:07:37;;;;;;;;;2.33;1.33;;;;;25.87;54.93;101197.75;2105242;28;46395;-57
2023/07/17 02:08:37;;;;;;;;;2.67;1.00;;;;;25.87;55.37;101197.75;2105001;28;46590;-55
2023/07/17 02:09:38;;;;;;;;;0.00;0.00;;;;;25.88;55.56;101198.63;2105274;28;46602;-58
2023/07/17 02:10:40;;;;;;;;;0.75;0.50;;;;;25.87;54.80;101194.16;2105164;28;46327;-55
2023/07/17 02:11:41;;;;;;;;;1.50;1.50;;;;;25.85;54.93;101199.72;2105078;28;46958;-57
2023/07/17 02:12:41;;;;;;;;;1.50;1.50;;;;;25.85;55.43;101193.44;2105072;28;46991;-56
2023/07/17 02:13:41;;;;;;;;;2.00;2.00;;;;;25.84;55.14;101205.28;2096146;28;46891;-58
2023/07/17 02:14:41;;;;;;;;;1.67;1.33;;;;;25.84;55.58;101194.41;2095680;28;46668;-57
2023/07/17 02:15:45;;;;;;;;;1.33;1.00;;;;;25.84;55.06;101198.00;2098157;28;46857;-57
2023/07/17 02:16:46;;;;;;;;;1.00;1.00;;;;;25.83;55.52;101199.00;2105409;28;46652;-58
2023/07/17 02:17:46;;;;;;;;;1.75;1.50;;;;;25.84;55.59;101197.13;2104737;28;46544;-57
2023/07/17 02:18:46;;;;;;;;;1.50;1.50;;;;;25.83;54.90;101196.28;2105049;28;46646;-57
2023/07/17 02:19:47;;;;;;;;;1.00;1.00;;;;;25.84;55.51;101194.41;2105130;28;46251;-59
2023/07/17 02:20:50;;;;;;;;;1.67;1.67;;;;;25.90;55.61;101200.22;2095627;28;45829;-58
2023/07/17 02:21:51;;;;;;;;;1.75;1.75;;;;;25.82;55.53;101199.97;2096585;28;47039;-56
2023/07/17 02:22:51;;;;;;;;;1.00;1.00;;;;;25.83;55.50;101200.84;2105108;28;46135;-58
2023/07/17 02:23:51;;;;;;;;;1.50;1.50;;;;;25.81;55.72;101201.84;2105373;28;46371;-57
2023/07/17 02:24:52;;;;;;;;;1.33;1.33;;;;;25.80;55.52;101200.09;2104886;28;46202;-56
2023/07/17 02:25:52;;;;;;;;;3.67;1.67;;;;;25.79;55.27;101200.19;2105245;28;45822;-57
2023/07/17 02:26:53;;;;;;;;;2.33;2.33;;;;;25.78;55.35;101204.75;2104708;28;46954;-56
2023/07/17 02:27:54;;;;;;;;;0.00;0.00;;;;;25.78;55.80;101206.63;2105116;28;46762;-57
2023/07/17 02:28:54;;;;;;;;;2.00;1.00;;;;;25.77;55.74;101200.31;2103905;28;46491;-56
2023/07/17 02:29:54;;;;;;;;;1.25;1.25;;;;;25.76;55.34;101204.03;2105186;28;46356;-56
2023/07/17 02:30:55;;;;;;;;;1.25;1.25;;;;;25.76;55.20;101209.47;2104674;28;46267;-54
2023/07/17 02:31:55;;;;;;;;;2.00;2.00;;;;;25.73;55.63;101193.41;2105036;28;46748;-58
2023/07/17 02:32:55;;;;;;;;;0.33;0.33;;;;;25.74;55.25;101205.13;2105135;28;46691;-58
2023/07/17 02:33:56;;;;;;;;;1.67;1.67;;;;;25.74;55.78;101205.13;2105095;28;46773;-56
2023/07/17 02:34:56;;;;;;;;;1.00;1.00;;;;;25.86;55.23;101203.31;2104765;28;46526;-56
2023/07/17 02:35:56;;;;;;;;;3.33;1.33;;;;;25.73;55.70;101204.28;2105064;28;46620;-57
2023/07/17 02:36:57;;;;;;;;;2.00;1.67;;;;;25.74;55.79;101205.13;2105094;28;46534;-55
2023/07/17 02:37:57;;;;;;;;;0.67;0.67;;;;;25.73;55.47;101201.56;2104927;28;45658;-57
2023/07/17 02:38:57;;;;;;;;;1.00;1.00;;;;;25.73;55.11;101203.41;2104987;28;46657;-57
2023/07/17 02:39:58;;;;;;;;;2.00;2.00;;;;;25.71;55.46;101199.94;2104793;28;46454;-56
2023/07/17 02:40:58;;;;;;;;;1.00;1.00;;;;;25.71;55.49;101198.09;2096017;28;46300;-58
2023/07/17 02:41:58;;;;;;;;;1.67;1.67;;;;;25.72;55.53;101196.22;2095837;28;46010;-56
2023/07/17 02:42:58;;;;;;;;;3.00;2.00;;;;;25.72;55.50;101201.69;2105039;28;46205;-56
2023/07/17 02:43:59;;;;;;;;;2.50;2.50;;;;;25.70;55.21;101199.06;2104603;28;46253;-55
2023/07/17 02:45:01;;;;;;;;;1.67;1.67;;;;;25.71;55.63;101205.38;2104878;28;46727;-57
2023/07/17 02:46:01;;;;;;;;;2.00;0.00;;;;;25.71;55.75;101205.38;2104807;28;46059;-57
2023/07/17 02:47:01;;;;;;;;;1.00;1.00;;;;;25.69;55.36;101208.22;2105308;28;46641;-57
2023/07/17 02:48:03;;;;;;;;;1.33;1.33;;;;;25.68;55.62;101211.03;2104949;28;46595;-57
2023/07/17 02:49:04;;;;;;;;;1.75;1.75;;;;;25.67;55.36;101210.16;2104939;28;46539;-57
2023/07/17 02:50:05;;;;;;;;;1.00;1.00;;;;;25.68;55.83;101214.63;2104956;28;46638;-58
2023/07/17 02:51:05;;;;;;;;;2.00;2.00;;;;;25.67;55.46;101210.16;2104839;28;46624;-58
2023/07/17 02:52:06;;;;;;;;;1.00;1.00;;;;;25.65;55.42;101213.97;2105078;28;46438;-58
2023/07/17 02:53:06;;;;;;;;;2.00;1.25;;;;;25.65;55.60;101213.97;2104983;28;46380;-56
2023/07/17 02:54:07;;;;;;;;;1.00;1.00;;;;;25.63;56.21;101207.78;2104750;28;46753;-56
2023/07/17 02:55:07;;;;;;;;;1.00;1.00;;;;;25.60;56.06;101211.59;2104914;28;46533;-56
2023/07/17 02:56:08;;;;;;;;;3.00;3.00;;;;;25.61;55.73;101207.03;2104647;28;46851;-57
2023/07/17 02:57:10;;;;;;;;;1.00;1.00;;;;;25.60;56.49;101218.91;2104714;28;46374;-58
2023/07/17 02:58:10;;;;;;;;;2.60;1.60;;;;;25.60;56.12;101219.75;2104735;28;46337;-58
2023/07/17 02:59:10;;;;;;;;;2.00;2.00;;;;;25.60;56.59;101217.03;2104688;28;46161;-57
2023/07/17 03:00:12;;;;;;;;;1.00;1.00;;;;;25.60;56.31;101213.47;2086570;28;46411;-56
2023/07/17 03:01:12;;;;;;;;;4.00;2.00;;;;;25.60;56.79;101221.63;2087209;28;46308;-55
2023/07/17 03:02:13;;;;;;;;;2.25;2.25;;;;;25.59;57.09;101218.03;2105518;28;46290;-55
2023/07/17 03:03:13;;;;;;;;;2.00;2.00;;;;;25.58;56.90;101215.44;2104951;28;46601;-57
2023/07/17 03:04:14;;;;;;;;;2.00;0.00;;;;;25.59;56.61;101223.47;2086602;28;46270;-57
2023/07/17 03:05:14;;;;;;;;;3.00;2.75;;;;;25.58;56.71;101216.28;2086830;28;46666;-57
2023/07/17 03:06:14;;;;;;;;;3.00;1.33;;;;;25.60;56.72;101222.47;2095786;28;46456;-57
2023/07/17 03:07:15;;;;;;;;;1.25;1.00;;;;;25.59;57.21;101223.47;2096116;28;46351;-57
2023/07/17 03:08:15;;;;;;;;;1.33;1.33;;;;;25.59;57.23;101222.59;2095648;28;46137;-58
2023/07/17 03:09:16;;;;;;;;;2.00;2.00;;;;;25.60;57.02;101224.34;2095850;28;46562;-56
2023/07/17 03:10:16;;;;;;;;;1.00;1.00;;;;;25.60;57.58;101221.63;2105173;28;46656;-57
2023/07/17 03:11:16;;;;;;;;;2.00;1.00;;;;;25.61;57.64;101215.19;2104646;28;46409;-58
2023/07/17 03:12:17;;;;;;;;;3.00;3.00;;;;;25.61;57.98;101216.06;2104660;28;46327;-57
2023/07/17 03:13:20;;;;;;;;;2.00;2.00;;;;;25.60;57.73;101214.31;2104941;28;46255;-55
2023/07/17 03:14:20;;;;;;;;;2.60;2.60;;;;;25.70;57.31;101219.97;2104682;28;46523;-57
2023/07/17 03:15:20;;;;;;;;;1.75;1.75;;;;;25.69;57.85;101212.78;2104778;28;46336;-55
2023/07/17 03:16:21;;;;;;;;;2.00;1.00;;;;;25.67;57.18;101210.16;2104390;28;46511;-57
2023/07/17 03:17:21;;;;;;;;;1.00;0.67;;;;;25.67;57.42;101217.44;2104680;28;46645;-57
2023/07/17 03:18:21;;;;;;;;;2.00;2.00;;;;;25.65;57.65;101217.53;2104829;28;46876;-55
2023/07/17 03:19:22;;;;;;;;;2.50;2.50;;;;;25.66;58.19;101213.84;2104438;28;46568;-57
2023/07/17 03:20:22;;;;;;;;;1.50;1.00;;;;;25.68;58.17;101214.63;2104979;28;46405;-56
2023/07/17 03:21:22;;;;;;;;;4.67;4.00;;;;;25.70;57.34;101214.53;2104780;28;46315;-57
2023/07/17 03:22:23;;;;;;;;;2.50;2.50;;;;;25.73;57.49;101219.72;2104471;28;46616;-57
2023/07/17 03:23:23;;;;;;;;;0.67;0.67;;;;;25.66;57.74;101221.13;2104732;28;46308;-59
2023/07/17 03:24:23;;;;;;;;;1.00;1.00;;;;;25.65;57.95;101222.97;2104893;28;46570;-55
2023/07/17 03:25:24;;;;;;;;;1.00;1.00;;;;;25.66;58.31;101222.00;2104655;28;46237;-56
2023/07/17 03:26:24;;;;;;;;;2.00;1.00;;;;;25.66;58.02;101232.00;2104632;28;46618;-58
2023/07/17 03:27:24;;;;;;;;;1.00;1.00;;;;;25.70;57.73;101226.25;2104803;28;46303;-56
2023/07/17 03:28:25;;;;;;;;;2.00;2.00;;;;;25.65;58.40;101225.69;2105000;28;46399;-57
2023/07/17 03:29:26;;;;;;;;;2.67;1.67;;;;;25.62;58.55;101219.63;2104649;28;46700;-57
2023/07/17 03:30:26;;;;;;;;;1.00;0.67;;;;;25.70;57.70;101222.69;2104694;28;46300;-55
2023/07/17 03:31:26;;;;;;;;;1.00;1.00;;;;;25.73;57.82;101230.59;2104787;28;46176;-56
2023/07/17 03:32:32;;;;;;;;;2.00;2.00;;;;;25.74;58.34;101226.88;2105168;28;46251;-59
2023/07/17 03:33:33;;;;;;;;;3.80;2.60;;;;;25.73;58.52;101223.31;2104654;28;46651;-57
2023/07/17 03:34:33;;;;;;;;;1.00;1.00;;;;;25.73;58.25;101223.31;2103987;28;46842;-57
2023/07/17 03:35:34;;;;;;;;;2.00;2.00;;;;;25.75;57.77;101223.19;2103904;28;46614;-58
2023/07/17 03:36:34;;;;;;;;;1.75;1.75;;;;;25.76;57.69;101233.06;2104528;28;46607;-56
2023/07/17 03:37:35;;;;;;;;;2.00;2.00;;;;;25.78;57.72;101236.53;2104304;28;46742;-57
2023/07/17 03:38:35;;;;;;;;;1.00;1.00;;;;;26.01;57.85;101229.31;2104828;28;46699;-57
2023/07/17 03:39:35;;;;;;;;;1.00;1.00;;;;;26.02;56.83;101231.03;2104851;27;45833;-58
2023/07/17 03:40:35;;;;;;;;;1.00;1.00;;;;;26.16;57.11;101232.66;2105866;28;46633;-57
2023/07/17 03:41:37;;;;;;;;;2.00;1.00;;;;;26.17;56.95;101240.75;2106152;28;46433;-58
2023/07/17 03:42:37;;;;;;;;;0.75;0.75;;;;;25.86;57.36;101236.81;2106108;28;46729;-57
2023/07/17 03:43:37;;;;;;;;;1.00;1.00;;;;;25.83;57.41;101247.06;2105747;28;46188;-58
2023/07/17 03:44:38;;;;;;;;;0.00;0.00;;;;;25.80;57.57;101243.59;2097326;28;46423;-58
2023/07/17 03:45:39;;;;;;;;;1.00;1.00;;;;;25.79;57.23;101238.25;2097057;28;46857;-56
2023/07/17 03:46:39;;;;;;;;;0.00;0.00;;;;;25.77;57.18;101237.50;2105924;28;46563;-58
2023/07/17 03:47:39;;;;;;;;;2.00;1.00;;;;;25.77;57.12;101246.53;2106249;28;46209;-58
2023/07/17 03:48:40;;;;;;;;;1.00;1.00;;;;;25.76;57.04;101244.81;2106299;28;46253;-56
2023/07/17 03:49:40;;;;;;;;;1.00;1.00;;;;;25.75;57.43;101245.78;2105979;28;46281;-56
2023/07/17 03:50:40;;;;;;;;;2.00;1.00;;;;;25.76;56.99;101246.66;2106064;28;46616;-58
2023/07/17 03:51:41;;;;;;;;;1.00;1.00;;;;;25.75;57.47;101247.66;2105948;28;46771;-56
2023/07/17 03:52:41;;;;;;;;;2.00;2.00;;;;;25.73;57.28;101242.31;2106278;28;46705;-57
2023/07/17 03:53:41;;;;;;;;;1.00;1.00;;;;;25.74;57.34;101248.63;2106030;28;46642;-58
2023/07/17 03:54:41;;;;;;;;;2.67;2.00;;;;;25.73;57.44;101250.47;2106098;28;46806;-56
2023/07/17 03:55:42;;;;;;;;;0.00;0.00;;;;;25.72;57.43;101246.03;2106243;28;46638;-58
2023/07/17 03:56:42;;;;;;;;;1.00;1.00;;;;;25.73;56.98;101249.63;2105644;28;46765;-56
2023/07/17 03:57:42;;;;;;;;;2.00;2.00;;;;;25.71;57.38;101249.75;2106103;28;46623;-57
2023/07/17 03:58:43;;;;;;;;;0.00;0.00;;;;;25.68;57.52;101249.09;2105973;28;46803;-57
2023/07/17 03:59:48;;;;;;;;;1.00;1.00;;;;;25.69;57.72;101245.41;2106012;28;46183;-59
2023/07/17 04:00:49;;;;;;;;;2.00;2.00;;;;;25.67;57.68;101253.66;2105752;28;46358;-58
2023/07/17 04:01:50;;;;;;;;;0.00;0.00;;;;;25.65;57.41;101249.28;2106058;28;46310;-59
2023/07/17 04:02:50;;;;;;;;;0.00;0.00;;;;;25.64;57.44;101253.00;2105899;28;46851;-56
2023/07/17 04:03:50;;;;;;;;;1.00;1.00;;;;;25.63;57.32;101248.56;2106209;28;46235;-56
2023/07/17 04:04:51;;;;;;;;;1.00;1.00;;;;;25.63;57.41;101245.84;2106160;28;46235;-57
2023/07/17 04:05:51;;;;;;;;;0.00;0.00;;;;;25.63;57.30;101248.56;2096756;28;46378;-59
2023/07/17 04:06:51;;;;;;;;;1.00;1.00;;;;;25.63;57.29;101252.13;2097028;28;46482;-56
2023/07/17 04:07:52;;;;;;;;;1.00;0.00;;;;;25.64;57.30;101251.16;2106104;28;46701;-57
2023/07/17 04:08:52;;;;;;;;;2.00;2.00;;;;;25.64;57.22;101255.72;2096995;28;44914;-58
2023/07/17 04:09:52;;;;;;;;;1.00;1.00;;;;;25.63;57.27;101251.28;2097129;28;46212;-58
2023/07/17 04:10:53;;;;;;;;;1.00;0.00;;;;;25.63;56.89;101245.84;2106194;28;46345;-58
2023/07/17 04:11:53;;;;;;;;;0.00;0.00;;;;;25.60;56.61;101249.66;2105857;28;46603;-56
2023/07/17 04:12:53;;;;;;;;;2.00;1.00;;;;;25.58;56.79;101250.75;2105857;28;46543;-57
2023/07/17 04:13:54;;;;;;;;;1.00;1.00;;;;;25.58;56.84;101248.06;2106109;28;46591;-58
2023/07/17 04:14:54;;;;;;;;;2.33;2.33;;;;;25.56;56.29;101256.31;2105643;28;46398;-58
2023/07/17 04:15:54;;;;;;;;;1.00;1.00;;;;;25.56;56.94;101250.03;2105909;28;46448;-58
2023/07/17 04:16:55;;;;;;;;;0.67;0.00;;;;;25.56;56.91;101258.19;2106290;28;46210;-58
2023/07/17 04:17:58;;;;;;;;;0.00;0.00;;;;;25.56;56.84;101253.59;2105742;28;46384;-57
2023/07/17 04:18:59;;;;;;;;;1.00;1.00;;;;;25.51;56.38;101253.06;2105778;28;46339;-57
2023/07/17 04:19:59;;;;;;;;;4.00;2.00;;;;;25.46;56.67;101253.44;2096508;28;46977;-59
2023/07/17 04:20:59;;;;;;;;;0.00;0.00;;;;;25.48;56.75;101256.03;2097005;28;46766;-57
2023/07/17 04:22:00;;;;;;;;;0.67;0.67;;;;;25.49;56.38;101255.03;2105960;28;46483;-58
2023/07/17 04:23:00;;;;;;;;;0.00;0.00;;;;;25.48;56.78;101262.31;2105618;28;46953;-58
2023/07/17 04:24:00;;;;;;;;;1.67;1.00;;;;;25.45;56.41;101251.69;2105974;28;46715;-56
2023/07/17 04:25:02;;;;;;;;;1.00;1.00;;;;;25.46;56.51;101258.88;2105949;28;46877;-58
2023/07/17 04:26:03;;;;;;;;;1.50;0.75;;;;;25.45;56.44;101259.84;2106053;28;47071;-58
2023/07/17 04:27:03;;;;;;;;;1.00;1.00;;;;;25.45;56.35;101256.25;2096835;28;46473;-58
2023/07/17 04:28:04;;;;;;;;;1.00;1.00;;;;;25.45;56.37;101257.13;2097059;28;46723;-56
2023/07/17 04:29:06;;;;;;;;;0.00;0.00;;;;;25.45;56.83;101269.84;2105666;28;47257;-56
2023/07/17 04:30:08;;;;;;;;;1.25;0.50;;;;;25.43;56.44;101264.53;2106142;28;46918;-56
2023/07/17 04:31:08;;;;;;;;;0.00;0.00;;;;;25.45;56.69;101264.41;2105902;28;46953;-57
2023/07/17 04:32:09;;;;;;;;;0.00;0.00;;;;;25.44;56.36;101268.97;2105418;28;46754;-56
2023/07/17 04:33:09;;;;;;;;;0.00;0.00;;;;;25.45;56.59;101269.84;2097044;28;46520;-56
2023/07/17 04:34:09;;;;;;;;;0.25;0.25;;;;;25.44;57.16;101268.13;2096736;28;46274;-57
2023/07/17 04:35:09;;;;;;;;;1.00;0.00;;;;;25.43;57.44;101263.66;2097284;28;46533;-56
2023/07/17 04:36:10;;;;;;;;;0.75;0.75;;;;;25.41;57.31;101263.78;2105692;28;46441;-57
2023/07/17 04:37:10;;;;;;;;;0.67;0.00;;;;;25.43;57.10;101264.53;2105491;28;46836;-57
2023/07/17 04:38:10;;;;;;;;;0.00;0.00;;;;;25.43;57.30;101263.66;2105714;28;46285;-58
2023/07/17 04:39:11;;;;;;;;;0.00;0.00;;;;;25.40;57.55;101256.59;2105861;28;46100;-58
2023/07/17 04:40:12;;;;;;;;;0.00;0.00;;;;;25.40;57.63;101263.88;2105443;28;46909;-57
2023/07/17 04:41:12;;;;;;;;;0.67;0.00;;;;;25.41;57.40;101265.59;2105871;28;46308;-57
2023/07/17 04:42:14;;;;;;;;;0.00;0.00;;;;;25.39;57.40;101268.44;2087227;28;46406;-57